Time;durP1;ratioP1;P1;durP2;ratioP2;P2;SDS_P1;SDS_P2;PMS_P1;PMS_P2;Temp;Humidity;BMP_temperature;BMP_pressure;BME280_temperature;BME280_humidity;BME280_pressure;Samples;Min_cycle;Max_cycle;Signal;HPM_P1;HPM_P2
2022/08/04 00:09:38;;;;;;;3.65;2.20;;;;;;;19.76;100.00;101044.72;21049996;28;20385;-75
2022/08/04 00:19:43;;;;;;;3.35;2.33;;;;;;;19.75;100.00;101045.72;21048523;28;20040;-75
2022/08/04 00:29:46;;;;;;;3.35;2.50;;;;;;;19.74;100.00;101025.09;21049129;28;20055;-75
2022/08/04 00:39:55;;;;;;;2.70;2.40;;;;;;;19.73;100.00;101018.00;21030936;28;20036;-75
2022/08/04 00:50:16;;;;;;;3.17;1.95;;;;;;;19.74;100.00;101010.75;20978349;28;1893375;-74
2022/08/04 01:00:18;;;;;;;2.95;2.20;;;;;;;19.73;100.00;101015.28;21050990;28;20093;-75
2022/08/04 01:10:25;;;;;;;3.97;2.22;;;;;;;19.73;100.00;101003.66;21048334;28;20454;-75
2022/08/04 01:20:32;;;;;;;2.97;2.33;;;;;;;19.72;100.00;101000.09;21048170;28;20044;-75
2022/08/04 01:30:35;;;;;;;4.60;2.38;;;;;;;19.70;100.00;100992.16;21031088;28;20112;-75
2022/08/04 01:40:37;;;;;;;3.38;2.10;;;;;;;19.49;100.00;100946.44;21034537;28;20066;-75
2022/08/04 01:50:41;;;;;;;3.53;2.30;;;;;;;19.69;100.00;100974.25;21045127;28;20051;-75
2022/08/04 02:00:55;;;;;;;3.13;2.20;;;;;;;19.69;100.00;100963.44;21046041;28;20403;-74
2022/08/04 02:11:07;;;;;;;3.55;2.58;;;;;;;19.68;100.00;100950.94;21044591;28;20052;-75
2022/08/04 02:21:11;;;;;;;2.65;2.05;;;;;;;19.68;100.00;100950.94;21043329;28;20040;-75
2022/08/04 02:31:27;;;;;;;3.05;2.17;;;;;;;19.67;100.00;100937.56;21043081;28;20446;-75
2022/08/04 02:41:32;;;;;;;3.90;2.20;;;;;;;19.67;100.00;100934.84;21026434;28;20055;-75
2022/08/04 02:51:42;;;;;;;2.40;2.10;;;;;;;19.66;100.00;100927.75;21043919;28;20055;-75
2022/08/04 03:01:44;;;;;;;2.85;2.05;;;;;;;19.66;100.00;100922.34;21041820;28;20047;-75
2022/08/04 03:12:28;;;;;;;3.10;2.23;;;;;;;19.65;100.00;100923.34;21043033;28;20062;-75
2022/08/04 03:23:08;;;;;;;2.80;2.13;;;;;;;19.63;100.00;100909.16;21040948;28;20048;-75
2022/08/04 03:33:45;;;;;;;3.08;2.35;;;;;;;19.64;100.00;100908.16;21040518;28;20047;-75
2022/08/04 03:44:03;;;;;;;2.78;2.20;;;;;;;19.63;100.00;100890.25;21031304;28;20055;-74
2022/08/04 03:54:23;;;;;;;2.50;2.30;;;;;;;19.41;100.00;100870.69;21056003;28;20055;-75
2022/08/04 04:04:33;;;;;;;4.20;2.47;;;;;;;19.61;100.00;100894.94;20998950;28;20056;-75
2022/08/04 04:14:53;;;;;;;3.67;2.30;;;;;;;19.61;100.00;100893.06;20971091;28;20044;-74
2022/08/04 04:25:22;;;;;;;3.25;2.20;;;;;;;19.60;100.00;100879.75;20970606;28;20052;-75
2022/08/04 04:35:33;;;;;;;3.00;2.28;;;;;;;19.60;100.00;100883.28;20982762;28;20052;-75
2022/08/04 04:45:40;;;;;;;3.15;2.22;;;;;;;19.59;100.00;100880.75;21052387;28;20059;-75
2022/08/04 04:55:51;;;;;;;2.92;2.38;;;;;;;19.57;100.00;100878.16;21049644;28;20582;-75
2022/08/04 05:06:02;;;;;;;2.53;2.00;;;;;;;19.58;100.00;100887.13;20958787;28;20044;-76
2022/08/04 05:16:16;;;;;;;3.92;2.90;;;;;;;19.58;100.00;100896.06;20910729;28;20064;-76
2022/08/04 05:26:22;;;;;;;6.70;3.85;;;;;;;19.42;100.00;100861.59;20918158;28;20036;-77
2022/08/04 05:36:45;;;;;;;5.20;2.88;;;;;;;19.62;100.00;100905.56;20910010;28;20048;-77
2022/08/04 05:46:50;;;;;;;7.68;3.75;;;;;;;19.66;100.00;100911.56;20942631;28;20056;-77
2022/08/04 05:56:56;;;;;;;6.97;3.22;;;;;;;19.66;100.00;100919.66;20919122;28;20497;-78
2022/08/04 06:06:57;;;;;;;7.65;4.55;;;;;;;19.66;100.00;100920.50;20920209;28;20044;-77
2022/08/04 06:17:01;;;;;;;6.93;3.75;;;;;;;19.67;100.00;100921.34;20920277;28;20055;-76
2022/08/04 06:27:05;;;;;;;10.63;4.37;;;;;;;19.67;100.00;100922.22;20899091;28;20402;-76
2022/08/04 06:37:07;;;;;;;9.02;5.80;;;;;;;19.68;100.00;100925.75;20911779;28;20557;-76
2022/08/04 06:47:09;;;;;;;7.18;5.10;;;;;;;19.68;100.00;100937.44;20876248;28;20097;-76
2022/08/04 06:57:19;;;;;;;10.35;5.03;;;;;;;19.71;100.00;100920.06;20907428;28;20117;-79
2022/08/04 07:07:23;;;;;;;7.50;5.15;;;;;;;19.73;100.00;100914.53;20888189;28;20036;-77
2022/08/04 07:17:38;;;;;;;8.27;4.45;;;;;;;19.76;100.00;100909.66;20918010;28;20049;-77
2022/08/04 07:27:42;;;;;;;4.47;3.35;;;;;;;19.80;100.00;100912.94;20887190;28;20056;-76
2022/08/04 07:37:49;;;;;;;5.68;3.35;;;;;;;19.84;100.00;100911.63;20892225;28;20055;-77
2022/08/04 07:47:51;;;;;;;5.72;3.53;;;;;;;19.72;100.00;100881.25;20901316;28;20084;-77
2022/08/04 07:58:06;;;;;;;5.53;3.58;;;;;;;19.89;100.00;100905.78;20909983;28;20045;-77
2022/08/04 08:08:07;;;;;;;6.47;3.67;;;;;;;19.92;100.00;100897.41;20926454;28;20041;-76
2022/08/04 08:18:09;;;;;;;4.38;2.85;;;;;;;19.82;100.00;100884.75;20921028;28;20072;-77
2022/08/04 08:28:10;;;;;;;3.35;2.55;;;;;;;19.97;100.00;100898.63;20909265;28;20182;-77
2022/08/04 08:38:14;;;;;;;4.78;2.80;;;;;;;19.98;100.00;100894.09;20926247;28;20401;-79
2022/08/04 08:48:21;;;;;;;2.67;2.47;;;;;;;19.96;100.00;100896.09;20898859;28;20053;-77
2022/08/04 08:58:53;;;;;;;2.90;2.30;;;;;;;19.95;100.00;100897.09;20897019;28;20049;-77
2022/08/04 09:09:24;;;;;;;3.35;2.60;;;;;;;19.92;100.00;100887.44;20906135;28;20065;-76
2022/08/04 09:19:57;;;;;;;4.20;2.50;;;;;;;19.93;100.00;100893.72;20918305;28;20040;-76
2022/08/04 09:30:07;;;;;;;3.53;2.40;;;;;;;19.71;100.00;100866.03;20863486;28;20048;-77
2022/08/04 09:40:30;;;;;;;3.70;2.53;;;;;;;19.93;100.00;100893.72;20915182;28;20045;-77
2022/08/04 09:50:57;;;;;;;4.07;2.13;;;;;;;19.92;100.00;100892.84;20901492;28;20058;-78
2022/08/04 10:01:03;;;;;;;3.75;2.47;;;;;;;19.95;100.00;100891.72;20890233;28;20044;-79
2022/08/04 10:11:21;;;;;;;4.05;1.95;;;;;;;19.97;100.00;100904.03;20929387;28;20044;-79
2022/08/04 10:21:26;;;;;;;2.70;2.17;;;;;;;19.94;100.00;100898.09;20905969;28;20053;-78
2022/08/04 10:31:33;;;;;;;4.18;1.90;;;;;;;19.80;100.00;100902.13;20919574;28;20071;-79
2022/08/04 10:42:11;;;;;;;2.20;1.95;;;;;;;20.00;100.00;100935.34;20899200;28;20048;-79
2022/08/04 10:52:19;;;;;;;2.65;1.70;;;;;;;19.83;100.00;100909.91;20926684;28;20048;-79
2022/08/04 11:02:42;;;;;;;3.55;2.30;;;;;;;20.02;100.00;100927.94;20934418;28;20642;-79
2022/08/04 11:12:47;;;;;;;2.38;2.08;;;;;;;19.98;100.00;100937.34;20915790;28;20066;-78
2022/08/04 11:23:09;;;;;;;2.53;2.13;;;;;;;20.00;100.00;100936.16;20904781;28;20118;-79
2022/08/04 11:33:27;;;;;;;3.10;1.75;;;;;;;19.78;100.00;100913.06;20903221;28;20508;-78
2022/08/04 11:43:35;;;;;;;2.55;2.00;;;;;;;19.99;100.00;100952.56;20901533;28;20059;-79
2022/08/04 11:53:58;;;;;;;2.40;1.73;;;;;;;20.06;100.00;100988.78;20898640;28;20055;-79
2022/08/04 12:04:21;;;;;;;2.30;1.73;;;;;;;20.06;100.00;101002.28;20907934;28;20049;-79
2022/08/04 12:14:44;;;;;;;2.08;1.73;;;;;;;20.06;100.00;101021.22;20904894;28;20519;-79
2022/08/04 12:25:07;;;;;;;2.88;1.67;;;;;;;20.07;100.00;101049.06;20875004;28;20063;-78
2022/08/04 12:35:20;;;;;;;2.75;2.10;;;;;;;19.99;100.00;101072.28;20893052;28;20784;-78
2022/08/04 12:45:22;;;;;;;2.17;1.88;;;;;;;20.06;100.00;101110.41;20902052;28;20552;-78
2022/08/04 12:55:26;;;;;;;2.53;1.60;;;;;;;20.06;100.00;101123.91;20868459;28;20107;-78
2022/08/04 13:05:29;;;;;;;2.47;1.65;;;;;;;19.95;100.00;101091.66;20886403;28;20505;-77
2022/08/04 13:15:32;;;;;;;3.78;1.60;;;;;;;20.06;100.00;101101.41;20885130;28;20077;-78
2022/08/04 13:25:52;;;;;;;3.72;1.85;;;;;;;20.07;100.00;101079.66;20893362;28;20083;-77
2022/08/04 13:36:15;;;;;;;4.70;1.52;;;;;;;19.90;100.00;101023.66;20902821;28;20049;-76
2022/08/04 13:46:28;;;;;;;2.45;1.63;;;;;;;19.58;100.00;100954.66;20880698;28;20080;-77
2022/08/04 13:56:45;;;;;;;4.32;1.67;;;;;;;20.04;100.00;101028.63;20898717;28;20066;-77
2022/08/04 14:06:55;;;;;;;3.53;1.63;;;;;;;20.00;100.00;101011.00;20889099;28;20070;-77
2022/08/04 14:17:08;;;;;;;4.03;2.00;;;;;;;20.07;100.00;101025.63;20883712;28;20056;-78
2022/08/04 14:27:20;;;;;;;5.43;1.90;;;;;;;19.89;100.00;100978.72;20882857;28;20056;-80
2022/08/04 14:37:22;;;;;;;2.55;1.63;;;;;;;20.06;100.00;101006.84;20881411;28;20107;-79
2022/08/04 14:47:41;;;;;;;3.50;1.90;;;;;;;20.05;100.00;101016.81;20864836;28;20052;-80
2022/08/04 14:57:53;;;;;;;2.53;1.60;;;;;;;20.04;100.00;101020.50;20878158;28;20064;-79
2022/08/04 15:08:15;;;;;;;3.50;1.63;;;;;;;20.05;100.00;101022.22;20872517;28;20436;-79
2022/08/04 15:18:17;;;;;;;2.03;1.38;;;;;;;20.04;100.00;101016.94;20876273;28;20048;-79
2022/08/04 15:28:23;;;;;;;3.55;1.50;;;;;;;20.04;100.00;101022.34;20909435;28;20048;-80
2022/08/04 15:38:31;;;;;;;2.50;1.30;;;;;;;19.97;100.00;101016.69;20876519;28;20055;-79
2022/08/04 15:48:34;;;;;;;2.38;1.25;;;;;;;19.86;100.00;101005.00;20909808;28;20135;-80
2022/08/04 15:58:49;;;;;;;2.40;1.20;;;;;;;20.05;100.00;101030.31;20944399;28;20051;-80
2022/08/04 16:08:54;;;;;;;2.67;1.50;;;;;;;20.05;100.00;101053.78;20970319;28;20394;-80
2022/08/04 16:19:21;;;;;;;2.10;1.00;;;;;;;20.04;100.00;101052.06;20991479;28;20048;-80
2022/08/04 16:29:22;;;;;;;1.93;1.60;;;;;;;20.03;100.00;101055.78;21052931;28;20142;-80
2022/08/04 16:39:24;;;;;;;2.45;1.20;;;;;;;19.97;100.00;101063.47;21053545;28;20109;-80
2022/08/04 16:49:27;;;;;;;1.33;1.00;;;;;;;20.02;100.00;101092.78;21050893;28;20450;-80
2022/08/04 16:59:29;;;;;;;1.63;1.10;;;;;;;20.00;100.00;101090.19;21033438;28;20514;-80
2022/08/04 17:09:31;;;;;;;1.52;1.20;;;;;;;19.92;100.00;101091.94;21032673;28;20047;-80
2022/08/04 17:19:33;;;;;;;1.40;1.02;;;;;;;19.99;100.00;101106.56;21031207;28;20093;-80
2022/08/04 17:29:34;;;;;;;2.15;1.20;;;;;;;19.98;100.00;101107.56;21049763;28;20051;-80
2022/08/04 17:39:48;;;;;;;1.80;1.20;;;;;;;19.97;100.00;101101.31;21047468;28;20131;-80
2022/08/04 17:49:50;;;;;;;0.88;0.88;;;;;;;19.82;100.00;101100.88;21046245;28;20071;-80
2022/08/04 17:59:55;;;;;;;2.05;1.20;;;;;;;19.84;100.00;101101.56;21043810;28;20040;-80
2022/08/04 18:10:00;;;;;;;1.45;1.30;;;;;;;19.96;100.00;101131.19;21044976;28;20127;-80
2022/08/04 18:20:24;;;;;;;2.60;1.35;;;;;;;19.94;100.00;101133.19;21035124;28;20131;-80
2022/08/04 18:30:28;;;;;;;;;;;;;;;19.92;100.00;101138.72;21043269;28;20044;-80
2022/08/04 18:40:39;;;;;;;1.48;1.02;;;;;;;19.91;100.00;101149.69;21044599;28;19924;-80
2022/08/04 18:50:55;;;;;;;1.55;1.10;;;;;;;19.66;100.00;101119.50;21043399;28;20056;-80
2022/08/04 19:01:12;;;;;;;1.40;1.30;;;;;;;19.65;100.00;101128.63;21042759;28;20097;-80
2022/08/04 19:11:14;;;;;;;2.58;1.13;;;;;;;19.83;100.00;101180.06;21037152;28;20072;-80
2022/08/04 19:21:36;;;;;;;0.90;0.90;;;;;;;19.88;100.00;101183.19;20977820;28;20460;-80
2022/08/04 19:31:58;;;;;;;1.40;1.00;;;;;;;19.86;100.00;101191.44;20974628;28;20098;-80
2022/08/04 19:41:59;;;;;;;0.93;0.93;;;;;;;19.86;100.00;101201.41;20971818;28;20053;-80
2022/08/04 19:52:07;;;;;;;1.75;1.20;;;;;;;19.84;100.00;101209.63;20971235;28;20040;-80
2022/08/04 20:02:09;;;;;;;1.00;0.85;;;;;;;19.85;100.00;101205.09;20972556;28;20054;-80
2022/08/04 20:12:15;;;;;;;1.13;1.00;;;;;;;19.64;100.00;101187.16;20972299;28;20052;-80
2022/08/04 20:22:20;;;;;;;1.10;1.00;;;;;;;19.82;100.00;101230.53;21051661;28;20131;-80
2022/08/04 20:32:42;;;;;;;1.63;1.20;;;;;;;19.81;100.00;101226.13;21053716;28;20048;-80
2022/08/04 20:42:53;;;;;;;1.45;1.33;;;;;;;19.82;100.00;101229.69;21053037;28;20051;-80
2022/08/04 20:52:57;;;;;;;1.03;0.90;;;;;;;19.81;100.00;101241.50;21052436;28;20068;-80
2022/08/04 21:02:59;;;;;;;1.08;1.00;;;;;;;19.74;100.00;101225.00;21051058;28;20875;-80
2022/08/04 21:13:00;;;;;;;1.98;1.30;;;;;;;19.74;100.00;101252.00;21036098;28;20097;-80
2022/08/04 21:23:02;;;;;;;1.23;1.05;;;;;;;19.79;100.00;101259.69;21048412;28;20054;-80
2022/08/04 21:33:07;;;;;;;1.63;1.30;;;;;;;19.78;100.00;101269.63;21047445;28;20044;-80
2022/08/04 21:43:10;;;;;;;1.10;1.00;;;;;;;19.71;100.00;101277.47;21046421;28;20050;-80
2022/08/04 21:53:12;;;;;;;1.90;1.30;;;;;;;19.77;100.00;101267.94;20960081;28;20044;-80
2022/08/04 22:03:13;;;;;;;1.60;1.20;;;;;;;19.76;100.00;101290.53;20957991;28;20048;-80
2022/08/04 22:13:35;;;;;;;1.85;1.60;;;;;;;19.76;100.00;101314.84;20958267;28;20044;-80
2022/08/04 22:24:00;;;;;;;1.20;1.10;;;;;;;19.63;100.00;101287.25;20923723;28;20048;-80
2022/08/04 22:34:03;;;;;;;1.48;1.10;;;;;;;19.75;100.00;101313.13;20959248;28;20053;-80
2022/08/04 22:44:04;;;;;;;1.50;1.27;;;;;;;19.74;100.00;101322.25;20954975;28;20052;-80
2022/08/04 22:54:06;;;;;;;1.65;1.42;;;;;;;19.73;100.00;101325.94;20944446;28;20040;-80
2022/08/04 23:04:13;;;;;;;2.25;1.35;;;;;;;19.74;100.00;101333.03;20886912;28;20631;-80
2022/08/04 23:14:14;;;;;;;1.42;1.30;;;;;;;19.72;100.00;101329.63;20945911;28;20049;-80
2022/08/04 23:24:16;;;;;;;1.95;1.23;;;;;;;19.71;100.00;101299.06;20956328;28;20392;-80
2022/08/04 23:34:19;;;;;;;1.45;1.35;;;;;;;19.71;100.00;101284.69;20951973;28;20056;-80
2022/08/04 23:44:21;;;;;;;2.10;1.15;;;;;;;19.71;100.00;101246.88;20915423;28;20045;-80
2022/08/04 23:54:26;;;;;;;1.23;1.10;;;;;;;19.69;100.00;101211.94;20988114;28;20500;-80
